Hurdland, MO (63547)

8:34 AM CDT on May 24, 2015 (GMT -0500)
La Plata | | Change Station
CLOSE
Current Station
Personal Weather Station
Location: La Plata, MO
Elevation: 928 ft
Nearby Weather Stations

Elev 928 ft 40.03 °N, 92.48 °W | Updated 14 seconds ago

Mostly Cloudy
Mostly Cloudy
60.3 °F
Feels Like 60.3 °F
N
2.2
Wind Variable Wind from SE
Gusts 3.1 mph

Today
High -- | Low -- °F
--% Chance of Precip.
Yesterday
High -- | Low -- °F
Precip. -- in
5:46 AM 8:26 PM
Waxing Crescent, 39% visible
Pressure 29.98 in
Visibility 4.0 miles
Clouds Scattered Clouds 2700 ft
Mostly Cloudy 4100 ft
Overcast 7000 ft
Dew Point 60 °F
Humidity 99%
Rainfall 0.44 in
Snow Depth Not available.
UV 1 out of 12
Pollen 4.10 out of 12
Air Quality Not available.
Flu Activity Sporadic
SPECI KIRK 241259Z AUTO 12010KT 4SM -RA BR SCT027 BKN041 OVC070 16/15 A2998 RMK AO2 P0000 T01560150

More Conditions Fewer Conditions

Pressure 29.98 in
Visibility 4.0 miles
Clouds Scattered Clouds 2700 ft
Mostly Cloudy 4100 ft
Overcast 7000 ft
Dew Point 60 °F
Humidity 99%
Rainfall 0.44 in
Snow Depth Not available.
UV 1 out of 12
Pollen 4.10 out of 12
Air Quality Not available.
Flu Activity Sporadic
SPECI KIRK 241259Z AUTO 12010KT 4SM -RA BR SCT027 BKN041 OVC070 16/15 A2998 RMK AO2 P0000 T01560150

More Conditions Fewer Conditions

10-Day Weather Forecast

Almanac

Astronomy

May. 24, 2015 Rise Set
Actual Time
Civil Twilight
Nautical Twilight
Astronomical Twilight
Moon
Length of Visible Light
Length of Day
Tomorrow will be .
, % of the Moon is Illuminated

Today's Extremes

State Highs State Lows

Community

WunderPhotos

Upload Photos

1,823,736 photos uploaded!

WunderBlogs® & News

Nearby

Air Quality

  Air Quality AQ Index Pollutant
Not available.

Snow Depth

Station Depth Elevation

Earthquake Activity

City Distance Mag. Time & Date
Minimum magnitude displayed is 2.5.

Coastal Water Temperatures

Place Temperature

Stations

Nearby Weather Stations

Station Location Temp. Windchill Dew Point Humidity Wind Precip. Elev Updated Type